createdAt,value
2023-04-27T00:02:22.013Z,100046.34
2023-04-27T00:04:50.392Z,100044.72
2023-04-27T00:07:18.408Z,100046.34
2023-04-27T00:09:47.694Z,100047.41
2023-04-27T00:12:15.805Z,100038.50
2023-04-27T00:14:43.833Z,100047.63
2023-04-27T00:17:11.766Z,100042.00
2023-04-27T00:19:41.904Z,100041.78
2023-04-27T00:22:09.860Z,100047.41
2023-04-27T00:24:37.793Z,100045.53
2023-04-27T00:27:07.513Z,100050.09
2023-04-27T00:29:35.651Z,100044.72
2023-04-27T00:32:03.668Z,100043.66
2023-04-27T00:34:31.669Z,100037.44
2023-04-27T00:36:59.756Z,100047.16
2023-04-27T00:39:27.882Z,100038.06
2023-04-27T00:41:56.004Z,100036.16
2023-04-27T00:44:25.897Z,100033.25
2023-04-27T00:46:53.809Z,100046.53
2023-04-27T00:49:22.285Z,100043.81
2023-04-27T00:51:50.887Z,100049.22
2023-04-27T00:54:20.722Z,100046.31
2023-04-27T00:56:49.880Z,100053.34
2023-04-27T00:59:17.834Z,100043.63
2023-04-27T01:01:47.383Z,100047.94
2023-04-27T01:04:17.135Z,100044.44
2023-04-27T01:06:45.696Z,100046.31
2023-04-27T01:09:13.968Z,100046.31
2023-04-27T01:11:42.162Z,100051.72
2023-04-27T01:14:11.189Z,100053.78
2023-04-27T01:16:39.161Z,100054.41
2023-04-27T01:19:08.696Z,100058.75
2023-04-27T01:21:36.689Z,100061.69
2023-04-27T01:24:07.483Z,100066.03
2023-04-27T01:26:35.766Z,100067.91
2023-04-27T01:29:03.683Z,100067.91
2023-04-27T01:31:31.808Z,100068.72
2023-04-27T01:33:59.726Z,100067.91
2023-04-27T01:36:28.219Z,100062.50
2023-04-27T01:38:56.184Z,100067.91
2023-04-27T01:41:28.174Z,100068.09
2023-04-27T01:43:56.145Z,100074.56
2023-04-27T01:46:24.617Z,100073.50
2023-04-27T01:48:52.664Z,100074.13
2023-04-27T01:51:20.639Z,100069.53
2023-04-27T01:53:48.573Z,100076.59
2023-04-27T01:56:16.620Z,100076.59
2023-04-27T01:58:46.185Z,100074.94
2023-04-27T02:01:14.195Z,100076.59
2023-04-27T02:03:42.459Z,100077.44
2023-04-27T02:06:10.571Z,100075.53
2023-04-27T02:08:38.475Z,100081.16
2023-04-27T02:11:06.463Z,100089.03
2023-04-27T02:13:34.455Z,100082.81
2023-04-27T02:16:05.257Z,100086.34
2023-04-27T02:18:33.798Z,100092.78
2023-04-27T02:21:01.908Z,100084.91
2023-04-27T02:23:29.892Z,100083.03
2023-04-27T02:25:57.864Z,100090.31
2023-04-27T02:28:25.859Z,100084.09
2023-04-27T02:30:54.297Z,100084.28
2023-04-27T02:33:23.710Z,100082.41
2023-04-27T02:35:51.734Z,100079.72
2023-04-27T02:38:19.820Z,100091.56
2023-04-27T02:40:47.767Z,100093.44
2023-04-27T02:43:15.771Z,100093.44
2023-04-27T02:45:43.777Z,100092.63
2023-04-27T02:48:11.692Z,100094.28
2023-04-27T02:50:43.132Z,100096.34
2023-04-27T02:53:11.161Z,100102.38
2023-04-27T02:55:39.173Z,100102.38
2023-04-27T02:58:07.166Z,100107.75
2023-04-27T03:00:35.328Z,100103.19
2023-04-27T03:03:04.466Z,100105.69
2023-04-27T03:05:32.862Z,100107.31
2023-04-27T03:08:02.198Z,100111.91
2023-04-27T03:10:30.291Z,100112.72
2023-04-27T03:12:58.223Z,100113.78
2023-04-27T03:15:26.407Z,100111.06
2023-04-27T03:17:56.582Z,100108.38
2023-04-27T03:20:24.531Z,100110.25
2023-04-27T03:22:54.684Z,100113.16
2023-04-27T03:25:24.246Z,100115.03
2023-04-27T03:27:52.468Z,100113.16
2023-04-27T03:30:20.608Z,100121.25
2023-04-27T03:32:48.540Z,100114.22
2023-04-27T03:35:16.956Z,100116.91
2023-04-27T03:37:46.206Z,100122.31
2023-04-27T03:40:15.513Z,100126.03
2023-04-27T03:42:44.938Z,100117.13
2023-04-27T03:45:13.323Z,100120.63
2023-04-27T03:47:41.440Z,100128.97
2023-04-27T03:50:10.407Z,100129.78
2023-04-27T03:52:38.354Z,100129.78
2023-04-27T03:55:07.448Z,100135.19
2023-04-27T03:57:35.375Z,100134.13
2023-04-27T04:00:07.748Z,100138.50
2023-04-27T04:02:36.786Z,100137.44
2023-04-27T04:05:04.857Z,100141.19
2023-04-27T04:07:32.891Z,100138.50
2023-04-27T04:10:00.771Z,100151.75
2023-04-27T04:12:28.637Z,100160.47
2023-04-27T04:14:56.737Z,100157.78
2023-04-27T04:17:26.225Z,100165.03
2023-04-27T04:19:54.261Z,100165.03
2023-04-27T04:22:22.183Z,100169.38
2023-04-27T04:24:50.074Z,100172.69
2023-04-27T04:27:18.036Z,100168.13
2023-04-27T04:29:46.202Z,100179.53
2023-04-27T04:32:17.786Z,100168.72
2023-04-27T04:34:50.718Z,100168.50
2023-04-27T04:37:18.605Z,100176.38
2023-04-27T04:39:46.703Z,100181.59
2023-04-27T04:42:14.583Z,100189.25
2023-04-27T04:44:42.797Z,100180.91
2023-04-27T04:47:11.187Z,100186.09
2023-04-27T04:49:39.197Z,100184.44
2023-04-27T04:52:08.479Z,100182.78
2023-04-27T04:54:36.685Z,100194.81
2023-04-27T04:57:04.726Z,100201.22
2023-04-27T04:59:34.628Z,100195.63
2023-04-27T05:02:02.666Z,100199.16
2023-04-27T05:04:30.804Z,100197.28
2023-04-27T05:07:00.131Z,100198.13
2023-04-27T05:09:29.444Z,100197.06
2023-04-27T05:11:57.453Z,100211.22
2023-04-27T05:14:25.822Z,100207.66
2023-04-27T05:16:53.774Z,100214.94
2023-04-27T05:19:21.682Z,100221.34
2023-04-27T05:21:49.572Z,100215.13
2023-04-27T05:24:18.060Z,100218.66
2023-04-27T05:26:47.431Z,100228.44
2023-04-27T05:29:15.765Z,100236.72
2023-04-27T05:31:44.090Z,100240.47
2023-04-27T05:34:12.021Z,100234.25
2023-04-27T05:36:39.942Z,100243.41
2023-04-27T05:39:08.036Z,100239.03
2023-04-27T05:41:36.077Z,100238.19
2023-04-27T05:44:05.548Z,100245.47
2023-04-27T05:46:33.539Z,100249.00
2023-04-27T05:49:01.690Z,100251.69
2023-04-27T05:51:30.010Z,100249.00
2023-04-27T05:53:59.936Z,100252.75
2023-04-27T05:56:27.914Z,100250.06
2023-04-27T05:58:55.962Z,100260.84
2023-04-27T06:01:25.428Z,100254.63
2023-04-27T06:03:53.614Z,100254.63
2023-04-27T06:06:21.581Z,100260.84
2023-04-27T06:08:49.564Z,100269.97
2023-04-27T06:11:18.049Z,100263.31
2023-04-27T06:13:46.460Z,100271.00
2023-04-27T06:16:14.528Z,100274.53
2023-04-27T06:18:43.887Z,100281.41
2023-04-27T06:21:11.854Z,100272.44
2023-04-27T06:23:39.795Z,100276.00
2023-04-27T06:26:07.862Z,100280.34
2023-04-27T06:28:35.789Z,100283.66
2023-04-27T06:31:04.761Z,100285.53
2023-04-27T06:33:32.942Z,100288.22
2023-04-27T06:36:03.294Z,100293.41
2023-04-27T06:38:31.287Z,100289.06
2023-04-27T06:40:59.322Z,100286.34
2023-04-27T06:43:27.335Z,100293.19
2023-04-27T06:45:55.247Z,100294.84
2023-04-27T06:48:23.304Z,100290.25
2023-04-27T06:50:52.147Z,100289.84
2023-04-27T06:53:21.752Z,100290.66
2023-04-27T06:55:51.129Z,100284.44
2023-04-27T06:58:19.218Z,100295.00
2023-04-27T07:00:47.254Z,100291.50
2023-04-27T07:03:15.868Z,100292.13
2023-04-27T07:05:44.188Z,100289.41
2023-04-27T07:08:13.407Z,100288.97
2023-04-27T07:10:42.761Z,100297.69
2023-04-27T07:13:11.745Z,100295.00
2023-04-27T07:15:40.464Z,100292.88
2023-04-27T07:18:08.804Z,100286.44
2023-04-27T07:20:38.865Z,100288.91
2023-04-27T07:23:07.317Z,100296.00
2023-04-27T07:25:36.251Z,100287.66
2023-04-27T07:28:05.728Z,100290.34
2023-04-27T07:30:36.496Z,100289.31
2023-04-27T07:33:04.535Z,100290.13
2023-04-27T07:35:33.004Z,100293.66
2023-04-27T07:38:01.918Z,100292.63
2023-04-27T07:40:29.910Z,100292.63
2023-04-27T07:42:58.402Z,100292.63
2023-04-27T07:45:32.341Z,100296.97
2023-04-27T07:48:00.917Z,100302.38
2023-04-27T07:50:30.866Z,100305.91
2023-04-27T07:52:58.883Z,100299.69
2023-04-27T07:55:27.138Z,100306.72
2023-04-27T07:57:55.105Z,100298.63
2023-04-27T08:00:23.643Z,100303.00
2023-04-27T08:02:54.464Z,100303.81
2023-04-27T08:05:23.093Z,100303.00
2023-04-27T08:07:54.232Z,100307.34
2023-04-27T08:10:22.719Z,100310.88
2023-04-27T08:12:50.790Z,100313.34
2023-04-27T08:15:18.715Z,100313.97
2023-04-27T08:17:47.344Z,100315.41
2023-04-27T08:20:16.860Z,100311.84
2023-04-27T08:22:45.040Z,100322.25
2023-04-27T08:25:13.009Z,100311.44
2023-04-27T08:27:41.091Z,100313.69
2023-04-27T08:30:10.500Z,100315.34
2023-04-27T08:32:38.461Z,100314.28
2023-04-27T08:35:07.258Z,100312.03
2023-04-27T08:37:36.693Z,100311.00
2023-04-27T08:40:06.920Z,100319.31
2023-04-27T08:42:34.880Z,100314.53
2023-04-27T08:45:02.765Z,100308.31
2023-04-27T08:47:41.805Z,100315.16
2023-04-27T08:50:12.154Z,100309.50
2023-04-27T08:52:41.602Z,100306.19
2023-04-27T08:55:10.142Z,100306.19
2023-04-27T08:57:38.084Z,100305.97
2023-04-27T09:00:12.938Z,100304.91
2023-04-27T09:02:46.825Z,100309.50
2023-04-27T09:05:18.549Z,100303.47
2023-04-27T09:08:02.300Z,100308.69
2023-04-27T09:10:30.379Z,100311.19
2023-04-27T09:12:59.138Z,100314.47
2023-04-27T09:15:27.116Z,100309.66
2023-04-27T09:17:56.580Z,100309.47
2023-04-27T09:20:27.096Z,100303.81
2023-04-27T09:22:58.401Z,100306.53
2023-04-27T09:25:28.924Z,100309.22
2023-04-27T09:27:58.109Z,100308.19
2023-04-27T09:30:26.356Z,100293.88
2023-04-27T09:32:55.012Z,100299.03
2023-04-27T09:35:24.147Z,100290.31
2023-04-27T09:37:53.225Z,100296.16
2023-04-27T09:40:23.731Z,100310.72
2023-04-27T09:42:53.169Z,100299.31
2023-04-27T09:45:21.149Z,100307.41
2023-04-27T09:47:49.113Z,100307.41
2023-04-27T09:50:17.372Z,100298.94
2023-04-27T09:52:46.695Z,100301.84
2023-04-27T09:55:17.712Z,100291.28
2023-04-27T09:57:52.831Z,100299.97
2023-04-27T10:00:26.212Z,100293.75
2023-04-27T10:03:00.165Z,100291.03
2023-04-27T10:05:36.639Z,100294.56
2023-04-27T10:08:05.036Z,100294.19
2023-04-27T10:10:43.360Z,100292.75
2023-04-27T10:13:23.953Z,100289.22
2023-04-27T10:15:52.492Z,100288.41
2023-04-27T10:18:27.340Z,100295.44
2023-04-27T10:20:55.330Z,100290.66
2023-04-27T10:23:26.789Z,100286.06
2023-04-27T10:25:54.907Z,100291.69
2023-04-27T10:28:24.218Z,100294.63
2023-04-27T10:30:52.366Z,100278.63
2023-04-27T10:33:21.454Z,100281.94
2023-04-27T10:35:55.835Z,100292.13
2023-04-27T10:38:28.446Z,100288.00
2023-04-27T10:40:57.133Z,100287.16
2023-04-27T10:43:27.692Z,100283.41
2023-04-27T10:45:55.936Z,100284.25
2023-04-27T10:48:23.985Z,100284.47
2023-04-27T10:50:52.595Z,100279.28
2023-04-27T10:53:20.695Z,100274.94
2023-04-27T10:55:49.272Z,100277.84
2023-04-27T10:58:17.179Z,100279.72
2023-04-27T11:00:46.464Z,100279.50
2023-04-27T11:03:17.033Z,100274.72
2023-04-27T11:05:45.486Z,100276.38
2023-04-27T11:08:14.381Z,100273.47
2023-04-27T11:10:43.913Z,100284.25
2023-04-27T11:13:12.775Z,100281.31
2023-04-27T11:15:49.123Z,100274.91
2023-04-27T11:18:17.527Z,100278.41
2023-04-27T11:20:45.619Z,100274.03
2023-04-27T11:23:24.576Z,100266.56
2023-04-27T11:25:52.833Z,100262.22
2023-04-27T11:28:21.530Z,100268.63
2023-04-27T11:30:56.699Z,100260.53
2023-04-27T11:33:24.689Z,100273.22
2023-04-27T11:35:52.584Z,100265.94
2023-04-27T11:38:20.577Z,100268.63
2023-04-27T11:40:48.629Z,100262.22
2023-04-27T11:43:16.864Z,100261.38
2023-04-27T11:45:45.058Z,100275.09
2023-04-27T11:48:17.587Z,100270.97
2023-04-27T11:50:48.332Z,100268.25
2023-04-27T11:53:18.669Z,100274.72
2023-04-27T11:55:52.712Z,100273.88
2023-04-27T11:58:20.657Z,100276.81
2023-04-27T12:00:48.629Z,100280.94
2023-04-27T12:03:18.262Z,100269.31
2023-04-27T12:05:50.110Z,100274.50
2023-04-27T12:08:18.213Z,100267.44
2023-04-27T12:10:46.426Z,100271.59
2023-04-27T12:13:14.459Z,100269.91
2023-04-27T12:15:42.492Z,100277.19
2023-04-27T12:18:10.613Z,100267.44
2023-04-27T12:20:40.080Z,100277.19
2023-04-27T12:23:08.423Z,100276.38
2023-04-27T12:25:36.493Z,100270.97
2023-04-27T12:28:04.774Z,100277.19
2023-04-27T12:30:32.783Z,100270.97
2023-04-27T12:33:00.945Z,100274.50
2023-04-27T12:35:31.861Z,100268.63
2023-04-27T12:38:02.132Z,100267.63
2023-04-27T12:40:30.144Z,100256.81
2023-04-27T12:43:00.430Z,100259.06
2023-04-27T12:45:29.076Z,100266.34
2023-04-27T12:48:03.197Z,100273.19
2023-04-27T12:50:32.352Z,100269.66
2023-04-27T12:53:02.042Z,100272.56
2023-04-27T12:55:34.115Z,100266.34
2023-04-27T12:58:02.649Z,100270.06
2023-04-27T13:00:31.182Z,100262.22
2023-04-27T13:02:59.561Z,100278.41
2023-04-27T13:05:29.728Z,100268.44
2023-04-27T13:07:59.193Z,100262.22
2023-04-27T13:10:29.125Z,100261.38
2023-04-27T13:12:57.148Z,100259.28
2023-04-27T13:15:25.074Z,100262.59
2023-04-27T13:17:54.551Z,100258.00
2023-04-27T13:20:22.671Z,100274.50
2023-04-27T13:22:50.650Z,100266.81
2023-04-27T13:25:20.010Z,100265.00
2023-04-27T13:27:50.257Z,100266.09
2023-04-27T13:30:18.318Z,100267.81
2023-04-27T13:32:46.346Z,100256.59
2023-04-27T13:35:14.470Z,100255.59
2023-04-27T13:37:42.807Z,100255.44
2023-04-27T13:40:12.616Z,100255.44
2023-04-27T13:42:40.906Z,100256.72
2023-04-27T13:45:11.410Z,100257.56
2023-04-27T13:47:40.364Z,100254.28
2023-04-27T13:50:10.314Z,100256.34
2023-04-27T13:52:38.993Z,100256.78
2023-04-27T13:55:07.941Z,100266.75
2023-04-27T13:57:35.918Z,100266.34
2023-04-27T14:00:04.067Z,100263.47
2023-04-27T14:02:33.538Z,100274.06
2023-04-27T14:05:01.770Z,100274.31
2023-04-27T14:07:30.768Z,100269.34
2023-04-27T14:09:58.746Z,100266.41
2023-04-27T14:12:26.862Z,100269.34
2023-04-27T14:14:56.230Z,100272.25
2023-04-27T14:17:25.802Z,100261.88
2023-04-27T14:19:55.247Z,100264.59
2023-04-27T14:22:23.262Z,100272.69
2023-04-27T14:24:52.119Z,100273.94
2023-04-27T14:27:20.164Z,100276.25
2023-04-27T14:29:49.979Z,100280.19
2023-04-27T14:32:18.237Z,100279.34
2023-04-27T14:34:46.329Z,100283.91
2023-04-27T14:37:15.569Z,100280.56
2023-04-27T14:39:45.282Z,100282.63
2023-04-27T14:42:13.437Z,100282.59
2023-04-27T14:44:41.481Z,100280.72
2023-04-27T14:47:09.509Z,100285.84
2023-04-27T14:49:37.690Z,100289.13
2023-04-27T14:52:06.745Z,100282.91
2023-04-27T14:54:38.512Z,100279.00
2023-04-27T14:57:24.714Z,100291.63
2023-04-27T14:59:52.709Z,100285.41
2023-04-27T15:02:20.808Z,100287.91
2023-04-27T15:04:48.928Z,100286.22
2023-04-27T15:07:16.837Z,100290.09
2023-04-27T15:09:46.190Z,100293.22
2023-04-27T15:12:14.168Z,100295.00
2023-04-27T15:14:42.122Z,100304.28
2023-04-27T15:17:10.025Z,100298.03
2023-04-27T15:19:38.020Z,100297.34
2023-04-27T15:22:07.232Z,100307.13
2023-04-27T15:24:35.204Z,100302.13
2023-04-27T15:27:04.627Z,100308.13
2023-04-27T15:29:32.680Z,100302.56
2023-04-27T15:32:01.233Z,100305.69
2023-04-27T15:34:29.200Z,100309.88
2023-04-27T15:36:57.081Z,100308.03
2023-04-27T15:39:25.067Z,100311.78
2023-04-27T15:41:52.963Z,100310.97
2023-04-27T15:44:22.246Z,100317.22
2023-04-27T15:46:50.180Z,100305.00
2023-04-27T15:49:18.132Z,100316.22
2023-04-27T15:51:46.229Z,100303.56
2023-04-27T15:54:14.224Z,100313.34
2023-04-27T15:56:42.208Z,100310.66
2023-04-27T15:59:10.167Z,100299.63
2023-04-27T16:01:39.493Z,100296.09
2023-04-27T16:04:07.707Z,100303.56
2023-04-27T16:06:36.875Z,100300.47
2023-04-27T16:09:04.931Z,100305.03
2023-04-27T16:11:32.940Z,100309.63
2023-04-27T16:14:01.198Z,100305.25
2023-04-27T16:16:29.354Z,100316.91
2023-04-27T16:18:59.492Z,100315.44
2023-04-27T16:21:28.074Z,100310.25
2023-04-27T16:23:56.128Z,100315.03
2023-04-27T16:26:25.964Z,100321.69
2023-04-27T16:28:56.609Z,100317.34
2023-04-27T16:31:25.143Z,100311.34
2023-04-27T16:33:53.065Z,100316.13
2023-04-27T16:36:22.327Z,100323.63
2023-04-27T16:38:50.288Z,100323.63
2023-04-27T16:41:18.292Z,100326.53
2023-04-27T16:43:46.328Z,100324.88
2023-04-27T16:46:14.821Z,100334.22
2023-04-27T16:48:42.727Z,100330.66
2023-04-27T16:51:10.801Z,100337.75
2023-04-27T16:53:40.136Z,100327.78
2023-04-27T16:56:10.105Z,100326.13
2023-04-27T16:58:38.428Z,100334.00
2023-04-27T17:01:06.545Z,100331.28
2023-04-27T17:03:36.058Z,100329.66
2023-04-27T17:06:04.228Z,100334.00
2023-04-27T17:08:32.241Z,100337.75
2023-04-27T17:11:01.653Z,100334.00
2023-04-27T17:13:29.738Z,100347.50
2023-04-27T17:15:57.742Z,100356.41
2023-04-27T17:18:25.807Z,100349.38
2023-04-27T17:20:54.188Z,100356.41
2023-04-27T17:23:22.271Z,100354.75
2023-04-27T17:25:50.269Z,100359.09
2023-04-27T17:28:19.692Z,100349.38
2023-04-27T17:30:47.742Z,100351.25
2023-04-27T17:33:16.802Z,100360.97
2023-04-27T17:35:44.998Z,100355.59
2023-04-27T17:38:12.933Z,100349.38
2023-04-27T17:40:40.915Z,100363.69
2023-04-27T17:43:09.286Z,100362.22
2023-04-27T17:45:38.992Z,100375.53
2023-04-27T17:48:07.790Z,100373.03
2023-04-27T17:50:36.245Z,100369.50
2023-04-27T17:53:04.233Z,100372.22
2023-04-27T17:55:32.364Z,100377.59
2023-04-27T17:58:00.290Z,100381.13
2023-04-27T18:00:28.325Z,100388.41
2023-04-27T18:02:57.828Z,100385.06
2023-04-27T18:05:26.164Z,100396.69
2023-04-27T18:07:54.285Z,100393.41
2023-04-27T18:10:22.261Z,100397.75
2023-04-27T18:12:50.188Z,100408.53
2023-04-27T18:15:18.230Z,100402.31
2023-04-27T18:17:46.384Z,100405.03
2023-04-27T18:20:15.994Z,100403.34
2023-04-27T18:22:44.075Z,100409.59
2023-04-27T18:25:13.261Z,100417.69
2023-04-27T18:27:41.586Z,100419.53
2023-04-27T18:30:09.872Z,100427.63
2023-04-27T18:32:37.889Z,100422.47
2023-04-27T18:35:06.707Z,100428.69
2023-04-27T18:37:36.131Z,100434.06
2023-04-27T18:40:05.890Z,100431.38
2023-04-27T18:42:33.924Z,100434.06
2023-04-27T18:45:01.943Z,100443.00
2023-04-27T18:47:29.938Z,100435.72
2023-04-27T18:49:57.838Z,100444.69
2023-04-27T18:52:25.737Z,100446.50
2023-04-27T18:54:55.083Z,100452.78
2023-04-27T18:57:23.412Z,100446.50
2023-04-27T18:59:51.318Z,100452.78
2023-04-27T19:02:19.447Z,100451.91
2023-04-27T19:04:56.715Z,100448.38
2023-04-27T19:07:29.921Z,100449.44
2023-04-27T19:09:59.194Z,100455.66
2023-04-27T19:12:27.312Z,100457.53
2023-04-27T19:14:55.313Z,100464.81
2023-04-27T19:17:24.669Z,100465.63
2023-04-27T19:19:52.943Z,100469.38
2023-04-27T19:22:20.945Z,100472.09
2023-04-27T19:24:48.984Z,100468.53
2023-04-27T19:27:18.292Z,100473.94
2023-04-27T19:29:50.844Z,100476.63
2023-04-27T19:32:19.694Z,100474.78
2023-04-27T19:34:47.659Z,100473.94
2023-04-27T19:37:15.999Z,100471.84
2023-04-27T19:39:44.005Z,100470.22
2023-04-27T19:42:11.998Z,100467.50
2023-04-27T19:44:41.599Z,100470.22
2023-04-27T19:47:10.813Z,100462.13
2023-04-27T19:49:38.749Z,100467.50
2023-04-27T19:52:07.602Z,100459.41
2023-04-27T19:54:36.129Z,100462.94
2023-04-27T19:57:04.640Z,100464.38
2023-04-27T19:59:32.636Z,100456.91
2023-04-27T20:02:01.991Z,100458.38
2023-04-27T20:04:30.179Z,100461.88
2023-04-27T20:06:58.316Z,100458.13
2023-04-27T20:09:26.219Z,100456.06
2023-04-27T20:11:55.011Z,100463.09
2023-04-27T20:14:22.925Z,100461.03
2023-04-27T20:16:50.805Z,100463.72
2023-04-27T20:19:20.926Z,100464.78
2023-04-27T20:21:48.920Z,100469.94
2023-04-27T20:24:17.380Z,100464.78
2023-04-27T20:26:46.516Z,100463.72
2023-04-27T20:29:14.467Z,100458.34
2023-04-27T20:31:42.480Z,100463.72
2023-04-27T20:34:10.408Z,100465.38
2023-04-27T20:36:39.636Z,100469.75
2023-04-27T20:39:09.055Z,100463.31
2023-04-27T20:41:38.561Z,100471.41
2023-04-27T20:44:07.189Z,100471.41
2023-04-27T20:46:35.256Z,100464.97
2023-04-27T20:49:03.326Z,100463.94
2023-04-27T20:51:33.014Z,100469.31
2023-04-27T20:54:02.545Z,100474.72
2023-04-27T20:56:32.941Z,100473.66
2023-04-27T20:59:00.971Z,100473.66
2023-04-27T21:01:29.052Z,100477.41
2023-04-27T21:03:57.195Z,100473.66
2023-04-27T21:06:25.198Z,100479.69
2023-04-27T21:08:53.163Z,100474.28
2023-04-27T21:11:22.682Z,100481.38
2023-04-27T21:13:50.662Z,100479.25
2023-04-27T21:16:18.633Z,100490.06
2023-04-27T21:18:46.608Z,100476.56
2023-04-27T21:21:14.542Z,100485.50
2023-04-27T21:23:42.458Z,100479.06
2023-04-27T21:26:10.815Z,100472.84
2023-04-27T21:28:46.510Z,100480.94
2023-04-27T21:31:14.554Z,100483.00
2023-04-27T21:33:42.585Z,100482.38
2023-04-27T21:36:10.864Z,100480.75
2023-04-27T21:38:38.806Z,100478.03
2023-04-27T21:41:06.839Z,100486.34
2023-04-27T21:43:34.802Z,100475.78
2023-04-27T21:46:04.165Z,100479.50
2023-04-27T21:48:32.202Z,100487.59
2023-04-27T21:51:00.130Z,100487.59
2023-04-27T21:53:28.025Z,100490.28
2023-04-27T21:55:57.672Z,100501.09
2023-04-27T21:58:25.677Z,100501.09
2023-04-27T22:00:53.792Z,100502.75
2023-04-27T22:03:23.562Z,100501.72
2023-04-27T22:05:52.905Z,100500.06
2023-04-27T22:08:21.778Z,100503.34
2023-04-27T22:10:49.842Z,100492.56
2023-04-27T22:13:45.685Z,100498.59
2023-04-27T22:16:14.071Z,100499.22
2023-04-27T22:18:43.558Z,100502.53
2023-04-27T22:21:12.419Z,100506.06
2023-04-27T22:23:40.393Z,100504.19
2023-04-27T22:26:09.015Z,100505.88
2023-04-27T22:28:37.232Z,100505.00
2023-04-27T22:31:05.451Z,100502.94
2023-04-27T22:33:33.493Z,100510.00
2023-04-27T22:36:02.885Z,100502.94
2023-04-27T22:38:30.780Z,100495.69
2023-04-27T22:40:58.780Z,100507.13
2023-04-27T22:43:29.848Z,100503.59
2023-04-27T22:45:57.828Z,100510.88
2023-04-27T22:48:26.266Z,100509.81
2023-04-27T22:50:54.155Z,100509.00
2023-04-27T22:53:23.397Z,100507.13
2023-04-27T22:55:51.350Z,100507.13
2023-04-27T22:58:19.466Z,100508.75
2023-04-27T23:00:47.551Z,100512.31
2023-04-27T23:03:15.822Z,100511.47
2023-04-27T23:05:43.916Z,100508.75
2023-04-27T23:08:13.400Z,100510.44
2023-04-27T23:10:42.975Z,100513.97
2023-04-27T23:13:10.893Z,100515.84
2023-04-27T23:15:39.627Z,100509.63
2023-04-27T23:18:07.692Z,100509.38
2023-04-27T23:20:35.663Z,100506.69
2023-04-27T23:23:03.589Z,100506.69
2023-04-27T23:25:33.050Z,100502.97
2023-04-27T23:28:02.982Z,100503.78
2023-04-27T23:30:31.102Z,100505.44
2023-04-27T23:32:59.102Z,100498.16
2023-04-27T23:35:28.415Z,100506.88
2023-04-27T23:37:56.604Z,100506.88
2023-04-27T23:40:24.618Z,100516.66
2023-04-27T23:42:52.655Z,100505.00
2023-04-27T23:45:22.264Z,100509.59
2023-04-27T23:47:50.286Z,100515.81
2023-04-27T23:50:18.506Z,100516.66
2023-04-27T23:52:46.451Z,100513.09
2023-04-27T23:55:14.438Z,100509.59
2023-04-27T23:57:42.930Z,100515.81
